Time,TemperatureF,DewpointF,PressureIn,WindDirection,WindDirectionDegrees,WindSpeedMPH,WindSpeedGustMPH,Humidity,HourlyPrecipIn,Conditions,Clouds,dailyrainin,SoftwareType,DateUTC
2013-01-28 00:00:00,42.0,35.0,-100.00,SW,235,4.0,-999.0,76,0.00,,,-99.99,,2013-01-28 08:00:00,
2013-01-28 00:21:00,42.0,35.0,-100.00,SW,235,4.0,-999.0,76,0.00,,,-99.99,,2013-01-28 08:21:00,
2013-01-28 00:32:00,42.0,35.0,-100.00,SW,235,4.0,-999.0,76,0.00,,,-99.99,,2013-01-28 08:32:00,
2013-01-28 00:42:00,42.0,35.0,-100.00,SW,235,4.0,-999.0,76,0.00,,,-99.99,,2013-01-28 08:42:00,
2013-01-28 00:52:00,42.0,35.0,-100.00,SW,235,4.0,-999.0,76,0.00,,,-99.99,,2013-01-28 08:52:00,
2013-01-28 01:00:00,44.0,34.0,-100.00,West,266,4.0,-999.0,67,0.00,,,-99.99,,2013-01-28 09:00:00,
2013-01-28 01:22:00,44.0,34.0,-100.00,West,266,4.0,-999.0,67,0.00,,,-99.99,,2013-01-28 09:22:00,
2013-01-28 01:32:00,44.0,34.0,-100.00,West,266,4.0,-999.0,67,0.00,,,-99.99,,2013-01-28 09:32:00,
2013-01-28 01:42:00,44.0,34.0,-100.00,West,266,4.0,-999.0,67,0.00,,,-99.99,,2013-01-28 09:42:00,
2013-01-28 01:52:00,44.0,34.0,-100.00,West,266,4.0,-999.0,67,0.00,,,-99.99,,2013-01-28 09:52:00,
2013-01-28 02:00:00,43.0,34.0,-100.00,WNW,298,4.0,-999.0,68,0.00,,,-99.99,,2013-01-28 10:00:00,
2013-01-28 02:21:00,43.0,34.0,-100.00,WNW,298,4.0,-999.0,68,0.00,,,-99.99,,2013-01-28 10:21:00,
2013-01-28 02:32:00,43.0,34.0,-100.00,WNW,298,4.0,-999.0,68,0.00,,,-99.99,,2013-01-28 10:32:00,
2013-01-28 02:42:00,43.0,34.0,-100.00,WNW,298,4.0,-999.0,68,0.00,,,-99.99,,2013-01-28 10:42:00,
2013-01-28 02:52:00,43.0,34.0,-100.00,WNW,298,4.0,-999.0,68,0.00,,,-99.99,,2013-01-28 10:52:00,
2013-01-28 03:00:00,43.0,34.0,-100.00,NW,310,6.0,-999.0,68,0.00,,,-99.99,,2013-01-28 11:00:00,
2013-01-28 03:22:00,43.0,34.0,-100.00,NW,310,6.0,-999.0,68,0.00,,,-99.99,,2013-01-28 11:22:00,
2013-01-28 03:32:00,43.0,34.0,-100.00,NW,310,6.0,-999.0,68,0.00,,,-99.99,,2013-01-28 11:32:00,
2013-01-28 03:42:00,43.0,34.0,-100.00,NW,310,6.0,-999.0,68,0.00,,,-99.99,,2013-01-28 11:42:00,
2013-01-28 03:52:00,43.0,34.0,-100.00,NW,310,6.0,-999.0,68,0.00,,,-99.99,,2013-01-28 11:52:00,
2013-01-28 04:00:00,45.0,34.0,-100.00,NW,310,3.0,-999.0,65,0.00,,,-99.99,,2013-01-28 12:00:00,
2013-01-28 04:23:00,45.0,34.0,-100.00,NW,310,3.0,-999.0,65,0.00,,,-99.99,,2013-01-28 12:23:00,
2013-01-28 04:33:00,45.0,34.0,-100.00,NW,310,3.0,-999.0,65,0.00,,,-99.99,,2013-01-28 12:33:00,
2013-01-28 04:42:00,45.0,34.0,-100.00,NW,310,3.0,-999.0,65,0.00,,,-99.99,,2013-01-28 12:42:00,
2013-01-28 04:52:00,45.0,34.0,-100.00,NW,310,3.0,-999.0,65,0.00,,,-99.99,,2013-01-28 12:52:00,
2013-01-28 05:00:00,45.0,35.0,-100.00,WNW,302,9.0,-999.0,68,0.00,,,-99.99,,2013-01-28 13:00:00,
2013-01-28 05:23:00,45.0,35.0,-100.00,WNW,302,9.0,-999.0,68,0.00,,,-99.99,,2013-01-28 13:23:00,
2013-01-28 05:33:00,45.0,35.0,-100.00,WNW,302,9.0,-999.0,68,0.00,,,-99.99,,2013-01-28 13:33:00,
2013-01-28 05:42:00,45.0,35.0,-100.00,WNW,302,9.0,-999.0,68,0.00,,,-99.99,,2013-01-28 13:42:00,
2013-01-28 05:52:00,45.0,35.0,-100.00,WNW,302,9.0,-999.0,68,0.00,,,-99.99,,2013-01-28 13:52:00,
2013-01-28 06:00:00,44.0,36.0,-100.00,WNW,287,6.0,-999.0,75,0.00,,,-99.99,,2013-01-28 14:00:00,
2013-01-28 06:23:00,44.0,36.0,-100.00,WNW,287,6.0,-999.0,75,0.00,,,-99.99,,2013-01-28 14:23:00,
2013-01-28 06:33:00,44.0,36.0,-100.00,WNW,287,6.0,-999.0,75,0.00,,,-99.99,,2013-01-28 14:33:00,
2013-01-28 06:43:00,44.0,36.0,-100.00,WNW,287,6.0,-999.0,75,0.00,,,-99.99,,2013-01-28 14:43:00,
2013-01-28 06:53:00,44.0,36.0,-100.00,WNW,287,6.0,-999.0,75,0.00,,,-99.99,,2013-01-28 14:53:00,
2013-01-28 07:00:00,42.0,38.0,-100.00,WNW,295,6.0,-999.0,83,0.00,,,-99.99,,2013-01-28 15:00:00,
2013-01-28 07:24:00,42.0,38.0,-100.00,WNW,295,6.0,-999.0,83,0.00,,,-99.99,,2013-01-28 15:24:00,
2013-01-28 07:33:00,42.0,38.0,-100.00,WNW,295,6.0,-999.0,83,0.00,,,-99.99,,2013-01-28 15:33:00,
2013-01-28 07:43:00,42.0,38.0,-100.00,WNW,295,6.0,-999.0,83,0.00,,,-99.99,,2013-01-28 15:43:00,
2013-01-28 07:53:00,42.0,38.0,-100.00,WNW,295,6.0,-999.0,83,0.00,,,-99.99,,2013-01-28 15:53:00,
2013-01-28 08:00:00,43.0,37.0,-100.00,North,10,6.0,-999.0,78,0.00,,,-99.99,,2013-01-28 16:00:00,
2013-01-28 08:22:00,43.0,37.0,-100.00,North,10,6.0,-999.0,78,0.00,,,-99.99,,2013-01-28 16:22:00,
2013-01-28 08:33:00,43.0,37.0,-100.00,North,10,6.0,-999.0,78,0.00,,,-99.99,,2013-01-28 16:33:00,
2013-01-28 08:43:00,43.0,37.0,-100.00,North,10,6.0,-999.0,78,0.00,,,-99.99,,2013-01-28 16:43:00,
2013-01-28 08:53:00,43.0,37.0,-100.00,North,10,6.0,-999.0,78,0.00,,,-99.99,,2013-01-28 16:53:00,
2013-01-28 09:00:00,43.0,37.0,-100.00,NNW,329,2.0,-999.0,78,0.00,,,-99.99,,2013-01-28 17:00:00,
2013-01-28 09:33:00,43.0,37.0,-100.00,NNW,329,2.0,-999.0,78,0.00,,,-99.99,,2013-01-28 17:33:00,
2013-01-28 09:42:00,43.0,37.0,-100.00,NNW,329,2.0,-999.0,78,0.00,,,-99.99,,2013-01-28 17:42:00,
2013-01-28 09:52:00,43.0,37.0,-100.00,NNW,329,2.0,-999.0,78,0.00,,,-99.99,,2013-01-28 17:52:00,
2013-01-28 10:00:00,46.0,38.0,-100.00,NNW,346,4.0,-999.0,72,0.00,,,-99.99,,2013-01-28 18:00:00,
2013-01-28 10:23:00,46.0,38.0,-100.00,NNW,346,4.0,-999.0,72,0.00,,,-99.99,,2013-01-28 18:23:00,
2013-01-28 10:33:00,46.0,38.0,-100.00,NNW,346,4.0,-999.0,72,0.00,,,-99.99,,2013-01-28 18:33:00,
2013-01-28 10:42:00,46.0,38.0,-100.00,NNW,346,4.0,-999.0,72,0.00,,,-99.99,,2013-01-28 18:42:00,
2013-01-28 10:52:00,46.0,38.0,-100.00,NNW,346,4.0,-999.0,72,0.00,,,-99.99,,2013-01-28 18:52:00,
2013-01-28 11:00:00,50.0,38.0,-100.00,NNW,337,9.0,-999.0,63,0.00,,,-99.99,,2013-01-28 19:00:00,
2013-01-28 11:22:00,50.0,38.0,-100.00,NNW,337,9.0,-999.0,63,0.00,,,-99.99,,2013-01-28 19:22:00,
2013-01-28 11:33:00,50.0,38.0,-100.00,NNW,337,9.0,-999.0,63,0.00,,,-99.99,,2013-01-28 19:33:00,
2013-01-28 11:42:00,50.0,38.0,-100.00,NNW,337,9.0,-999.0,63,0.00,,,-99.99,,2013-01-28 19:42:00,
2013-01-28 11:52:00,50.0,38.0,-100.00,NNW,337,9.0,-999.0,63,0.00,,,-99.99,,2013-01-28 19:52:00,
2013-01-28 12:00:00,53.0,38.0,-100.00,North,3,17.0,-999.0,56,0.00,,,-99.99,,2013-01-28 20:00:00,
2013-01-28 12:22:00,53.0,38.0,-100.00,North,3,17.0,-999.0,56,0.00,,,-99.99,,2013-01-28 20:22:00,
2013-01-28 12:33:00,53.0,38.0,-100.00,North,3,17.0,-999.0,56,0.00,,,-99.99,,2013-01-28 20:33:00,
2013-01-28 12:43:00,53.0,38.0,-100.00,North,3,17.0,-999.0,56,0.00,,,-99.99,,2013-01-28 20:43:00,
2013-01-28 12:52:00,53.0,38.0,-100.00,North,3,17.0,-999.0,56,0.00,,,-99.99,,2013-01-28 20:52:00,
2013-01-28 13:00:00,54.0,36.0,-100.00,North,1,20.0,-999.0,50,0.00,,,-99.99,,2013-01-28 21:00:00,
2013-01-28 13:23:00,54.0,36.0,-100.00,North,1,20.0,-999.0,50,0.00,,,-99.99,,2013-01-28 21:23:00,
2013-01-28 13:33:00,54.0,36.0,-100.00,North,1,20.0,-999.0,50,0.00,,,-99.99,,2013-01-28 21:33:00,
2013-01-28 13:43:00,54.0,36.0,-100.00,North,1,20.0,-999.0,50,0.00,,,-99.99,,2013-01-28 21:43:00,
2013-01-28 13:52:00,54.0,36.0,-100.00,North,1,20.0,-999.0,50,0.00,,,-99.99,,2013-01-28 21:52:00,
2013-01-28 14:00:00,56.0,38.0,-100.00,North,0,12.0,-999.0,50,0.00,,,-99.99,,2013-01-28 22:00:00,
2013-01-28 14:23:00,56.0,38.0,-100.00,North,0,12.0,-999.0,50,0.00,,,-99.99,,2013-01-28 22:23:00,
2013-01-28 14:33:00,56.0,38.0,-100.00,North,0,12.0,-999.0,50,0.00,,,-99.99,,2013-01-28 22:33:00,
2013-01-28 14:42:00,56.0,38.0,-100.00,North,0,12.0,-999.0,50,0.00,,,-99.99,,2013-01-28 22:42:00,
2013-01-28 14:52:00,56.0,38.0,-100.00,North,0,12.0,-999.0,50,0.00,,,-99.99,,2013-01-28 22:52:00,
2013-01-28 15:00:00,57.0,42.0,-100.00,WNW,290,4.0,-999.0,57,0.00,,,-99.99,,2013-01-28 23:00:00,
2013-01-28 15:22:00,57.0,42.0,-100.00,WNW,290,4.0,-999.0,57,0.00,,,-99.99,,2013-01-28 23:22:00,
2013-01-28 15:32:00,57.0,42.0,-100.00,WNW,290,4.0,-999.0,57,0.00,,,-99.99,,2013-01-28 23:32:00,
2013-01-28 15:42:00,57.0,42.0,-100.00,WNW,290,4.0,-999.0,57,0.00,,,-99.99,,2013-01-28 23:42:00,
2013-01-28 15:53:00,57.0,42.0,-100.00,WNW,290,4.0,-999.0,57,0.00,,,-99.99,,2013-01-28 23:53:00,
2013-01-28 16:00:00,55.0,43.0,-100.00,WNW,293,9.0,-999.0,63,0.00,,,-99.99,,2013-01-29 00:00:00,
2013-01-28 16:22:00,55.0,43.0,-100.00,WNW,293,9.0,-999.0,63,0.00,,,-99.99,,2013-01-29 00:22:00,
2013-01-28 16:33:00,55.0,43.0,-100.00,WNW,293,9.0,-999.0,63,0.00,,,-99.99,,2013-01-29 00:33:00,
2013-01-28 16:42:00,55.0,43.0,-100.00,WNW,293,9.0,-999.0,63,0.00,,,-99.99,,2013-01-29 00:42:00,
2013-01-28 16:52:00,55.0,43.0,-100.00,WNW,293,9.0,-999.0,63,0.00,,,-99.99,,2013-01-29 00:52:00,
2013-01-28 17:00:00,53.0,38.0,-100.00,NNW,334,4.0,-999.0,55,0.00,,,-99.99,,2013-01-29 01:00:00,
2013-01-28 17:23:00,53.0,38.0,-100.00,NNW,334,4.0,-999.0,55,0.00,,,-99.99,,2013-01-29 01:23:00,
2013-01-28 17:32:00,53.0,38.0,-100.00,NNW,334,4.0,-999.0,55,0.00,,,-99.99,,2013-01-29 01:32:00,
2013-01-28 17:42:00,53.0,38.0,-100.00,NNW,334,4.0,-999.0,55,0.00,,,-99.99,,2013-01-29 01:42:00,
2013-01-28 17:52:00,53.0,38.0,-100.00,NNW,334,4.0,-999.0,55,0.00,,,-99.99,,2013-01-29 01:52:00,
2013-01-28 18:00:00,49.0,42.0,-100.00,WNW,283,7.0,-999.0,75,0.00,,,-99.99,,2013-01-29 02:00:00,
2013-01-28 18:22:00,49.0,42.0,-100.00,WNW,283,7.0,-999.0,75,0.00,,,-99.99,,2013-01-29 02:22:00,
2013-01-28 18:33:00,49.0,42.0,-100.00,WNW,283,7.0,-999.0,75,0.00,,,-99.99,,2013-01-29 02:33:00,
2013-01-28 18:42:00,49.0,42.0,-100.00,WNW,283,7.0,-999.0,75,0.00,,,-99.99,,2013-01-29 02:42:00,
2013-01-28 18:53:00,49.0,42.0,-100.00,WNW,283,7.0,-999.0,75,0.00,,,-99.99,,2013-01-29 02:53:00,
2013-01-28 19:00:00,49.0,40.0,-100.00,WNW,294,10.0,-999.0,71,0.00,,,-99.99,,2013-01-29 03:00:00,
2013-01-28 19:22:00,49.0,40.0,-100.00,WNW,294,10.0,-999.0,71,0.00,,,-99.99,,2013-01-29 03:22:00,
2013-01-28 19:32:00,49.0,40.0,-100.00,WNW,294,10.0,-999.0,71,0.00,,,-99.99,,2013-01-29 03:32:00,
2013-01-28 19:42:00,49.0,40.0,-100.00,WNW,294,10.0,-999.0,71,0.00,,,-99.99,,2013-01-29 03:42:00,
2013-01-28 19:53:00,49.0,40.0,-100.00,WNW,294,10.0,-999.0,71,0.00,,,-99.99,,2013-01-29 03:53:00,
2013-01-28 20:00:00,49.0,38.0,-100.00,WNW,289,9.0,-999.0,65,0.00,,,-99.99,,2013-01-29 04:00:00,
2013-01-28 20:22:00,49.0,38.0,-100.00,WNW,289,9.0,-999.0,65,0.00,,,-99.99,,2013-01-29 04:22:00,
2013-01-28 20:32:00,49.0,38.0,-100.00,WNW,289,9.0,-999.0,65,0.00,,,-99.99,,2013-01-29 04:32:00,
2013-01-28 20:42:00,49.0,38.0,-100.00,WNW,289,9.0,-999.0,65,0.00,,,-99.99,,2013-01-29 04:42:00,
2013-01-28 20:52:00,49.0,38.0,-100.00,WNW,289,9.0,-999.0,65,0.00,,,-99.99,,2013-01-29 04:52:00,
2013-01-28 21:00:00,48.0,38.0,-100.00,WNW,301,10.0,-999.0,66,0.00,,,-99.99,,2013-01-29 05:00:00,
2013-01-28 21:22:00,48.0,38.0,-100.00,WNW,301,10.0,-999.0,66,0.00,,,-99.99,,2013-01-29 05:22:00,
2013-01-28 21:32:00,48.0,38.0,-100.00,WNW,301,10.0,-999.0,66,0.00,,,-99.99,,2013-01-29 05:32:00,
2013-01-28 21:42:00,48.0,38.0,-100.00,WNW,301,10.0,-999.0,66,0.00,,,-99.99,,2013-01-29 05:42:00,
2013-01-28 21:52:00,48.0,38.0,-100.00,WNW,301,10.0,-999.0,66,0.00,,,-99.99,,2013-01-29 05:52:00,
2013-01-28 22:00:00,47.0,38.0,-100.00,WNW,296,6.0,-999.0,69,0.00,,,-99.99,,2013-01-29 06:00:00,
2013-01-28 22:22:00,47.0,38.0,-100.00,WNW,296,6.0,-999.0,69,0.00,,,-99.99,,2013-01-29 06:22:00,
2013-01-28 22:32:00,47.0,38.0,-100.00,WNW,296,6.0,-999.0,69,0.00,,,-99.99,,2013-01-29 06:32:00,
2013-01-28 22:42:00,47.0,38.0,-100.00,WNW,296,6.0,-999.0,69,0.00,,,-99.99,,2013-01-29 06:42:00,
2013-01-28 22:52:00,47.0,38.0,-100.00,WNW,296,6.0,-999.0,69,0.00,,,-99.99,,2013-01-29 06:52:00,
2013-01-28 23:00:00,48.0,37.0,-100.00,NW,315,6.0,-999.0,66,0.00,,,-99.99,,2013-01-29 07:00:00,
2013-01-28 23:21:00,48.0,37.0,-100.00,NW,315,6.0,-999.0,66,0.00,,,-99.99,,2013-01-29 07:21:00,
2013-01-28 23:32:00,48.0,37.0,-100.00,NW,315,6.0,-999.0,66,0.00,,,-99.99,,2013-01-29 07:32:00,
2013-01-28 23:42:00,48.0,37.0,-100.00,NW,315,6.0,-999.0,66,0.00,,,-99.99,,2013-01-29 07:42:00,
2013-01-28 23:52:00,48.0,37.0,-100.00,NW,315,6.0,-999.0,66,0.00,,,-99.99,,2013-01-29 07:52:00,